Time;durP1;ratioP1;P1;durP2;ratioP2;P2;SDS_P1;SDS_P2;PMS_P1;PMS_P2;Temp;Humidity;BMP_temperature;BMP_pressure;BME280_temperature;BME280_humidity;BME280_pressure;Samples;Min_cycle;Max_cycle;Signal;HPM_P1;HPM_P2
2022/01/14 00:00:38;;;;;;;8.82;4.50;;;;;;;1.00;62.56;102526.59;4975116;28;20050;-86
2022/01/14 00:03:05;;;;;;;8.88;3.95;;;;;;;1.11;61.45;102521.88;4974242;28;20043;-79
2022/01/14 00:05:30;;;;;;;6.78;3.97;;;;;;;1.20;62.31;102523.28;4974048;28;20034;-81
2022/01/14 00:07:56;;;;;;;13.38;4.93;;;;;;;1.43;61.66;102521.59;4974091;28;20043;-80
2022/01/14 00:10:26;;;;;;;8.88;4.38;;;;;;;1.45;61.49;102535.47;4972744;28;20109;-83
2022/01/14 00:12:57;;;;;;;12.00;4.65;;;;;;;1.59;61.37;102526.28;4974877;28;20058;-77
2022/01/14 00:15:26;;;;;;;8.63;4.57;;;;;;;1.80;60.69;102530.69;4992836;28;20047;-81
2022/01/14 00:17:53;;;;;;;11.13;5.15;;;;;;;1.91;60.69;102529.41;4974198;28;20043;-81
2022/01/14 00:20:20;;;;;;;14.07;4.35;;;;;;;1.95;60.40;102533.59;4973999;28;20034;-81
2022/01/14 00:22:46;;;;;;;11.88;4.60;;;;;;;1.85;61.37;102523.56;4974339;28;20035;-80
2022/01/14 00:33:09;;;;;;;8.90;4.35;;;;;;;1.69;60.72;102515.41;4972583;28;20062;-80
2022/01/14 00:35:41;;;;;;;11.43;4.70;;;;;;;1.82;61.23;102507.97;4974248;28;20094;-88
2022/01/14 00:38:07;;;;;;;8.23;4.05;;;;;;;1.72;61.33;102504.00;4972698;28;20035;-85
2022/01/14 00:40:33;;;;;;;13.80;5.18;;;;;;;1.79;60.33;102513.31;4974225;28;20039;-80
2022/01/14 00:42:59;;;;;;;10.88;4.20;;;;;;;1.86;60.15;102509.53;4974491;28;20035;-79
2022/01/14 00:45:25;;;;;;;10.45;4.53;;;;;;;2.02;59.28;102508.09;4972467;28;20094;-80
2022/01/14 00:47:51;;;;;;;7.72;4.00;;;;;;;2.11;59.38;102488.56;4973548;28;20046;-80
2022/01/14 00:50:18;;;;;;;10.93;4.35;;;;;;;2.11;57.88;102499.88;4973353;28;20046;-79
2022/01/14 00:52:44;;;;;;;9.27;4.68;;;;;;;1.89;59.17;102501.63;4973656;28;20035;-79
2022/01/14 00:55:29;;;;;;;8.50;4.43;;;;;;;1.85;59.01;102492.19;4991366;28;20459;-90
2022/01/14 01:01:01;;;;;;;9.32;4.30;;;;;;;2.09;58.06;102488.59;4983888;28;20054;-90
2022/01/14 01:03:34;;;;;;;8.60;4.45;;;;;;;1.90;58.67;102485.00;4984622;28;20046;-89
2022/01/14 01:06:07;;;;;;;;;;;;;;;1.73;59.68;102493.47;4970615;28;20046;-89
2022/01/14 01:08:42;;;;;;;8.52;4.07;;;;;;;1.47;60.95;102490.97;4986901;28;19918;-90
2022/01/14 01:11:34;;;;;;;5.03;2.83;;;;;;;1.32;61.61;102486.31;4985565;28;20054;-89
2022/01/14 01:14:45;;;;;;;7.38;3.17;;;;;;;1.48;60.71;102482.25;4984777;28;20035;-90
2022/01/14 01:16:49;;;;;;;5.15;2.83;;;;;;;1.49;59.86;102481.34;4976667;28;20059;-89
2022/01/14 01:19:54;;;;;;;7.38;3.35;;;;;;;1.77;58.66;102483.75;4968843;28;20053;-90
2022/01/14 01:22:20;;;;;;;5.10;3.20;;;;;;;1.84;59.06;102490.47;4987013;28;20050;-89
2022/01/14 01:25:05;;;;;;;5.82;3.67;;;;;;;1.99;58.86;102482.00;4994490;28;20107;-89
2022/01/14 01:27:37;;;;;;;8.15;3.53;;;;;;;1.84;58.28;102495.69;5000886;28;20035;-89
2022/01/14 01:32:53;;;;;;;6.90;3.55;;;;;;;1.54;59.61;102488.09;4992274;23;20109;-90
2022/01/14 01:35:20;;;;;;;10.88;3.85;;;;;;;1.28;60.95;102488.19;4983441;28;20066;-88
2022/01/14 01:37:48;;;;;;;13.10;4.47;;;;;;;1.27;61.63;102486.47;4991218;28;20373;-89
2022/01/14 01:40:50;;;;;;;6.97;3.35;;;;;;;1.18;62.44;102478.97;4992992;28;20077;-93
2022/01/14 01:46:11;;;;;;;8.05;3.88;;;;;;;1.13;61.97;102478.25;4929712;29;20075;-87
2022/01/14 01:52:07;;;;;;;8.73;3.45;;;;;;;1.15;62.65;102481.69;4941758;29;20104;-89
2022/01/14 01:54:36;;;;;;;8.63;3.22;;;;;;;1.06;62.81;102486.38;4934174;29;20517;-88
2022/01/14 01:57:08;;;;;;;6.60;3.38;;;;;;;1.11;62.72;102482.69;4931065;29;20096;-91
2022/01/14 01:59:35;;;;;;;6.03;3.25;;;;;;;1.20;62.39;102477.16;4929555;29;20108;-88
2022/01/14 02:02:02;;;;;;;5.57;3.30;;;;;;;1.19;62.24;102477.22;4927895;29;20028;-88
2022/01/14 02:04:30;;;;;;;8.00;3.65;;;;;;;1.32;62.06;102473.25;4913278;29;20036;-89
2022/01/14 02:06:59;;;;;;;6.32;3.03;;;;;;;1.45;61.64;102470.16;4931701;29;20175;-88
2022/01/14 02:09:27;;;;;;;7.45;3.38;;;;;;;1.70;60.64;102472.69;4916820;29;20047;-89
2022/01/14 02:18:35;;;;;;;6.70;3.72;;;;;;;1.33;61.49;102469.72;4977824;28;20067;-88
2022/01/14 02:23:23;;;;;;;9.90;3.38;;;;;;;1.47;61.05;102464.84;4999989;28;20027;-89
2022/01/14 02:25:49;;;;;;;5.45;3.22;;;;;;;1.64;60.63;102459.00;5000286;28;20030;-89
2022/01/14 02:28:17;;;;;;;6.75;3.35;;;;;;;1.83;59.75;102457.38;4967237;28;20026;-90
2022/01/14 02:30:50;;;;;;;5.05;2.97;;;;;;;1.87;59.42;102452.00;4999468;28;20066;-89
2022/01/14 02:33:24;;;;;;;5.55;3.22;;;;;;;1.87;59.09;102449.38;4997243;28;20058;-87
2022/01/14 03:03:40;;;;;;;7.00;3.30;;;;;;;1.12;63.72;102411.31;3630267;23;21294;-84
2022/01/14 03:06:09;;;;;;;11.73;4.60;;;;;;;0.98;64.43;102410.94;5158121;23;20031;-83
2022/01/14 04:34:40;;;;;;;5.40;3.03;;;;;;;1.45;67.50;102305.56;3173907;23;20021;-83
2022/01/14 06:00:52;;;;;;;10.25;5.18;;;;;;;-0.53;83.84;102269.19;5466291;23;20107;-86
2022/01/14 06:03:22;;;;;;;13.00;6.30;;;;;;;-0.39;82.52;102258.34;5019821;23;20046;-83
2022/01/14 06:05:57;;;;;;;12.90;5.82;;;;;;;-0.26;81.34;102264.00;5006122;23;20066;-87
2022/01/14 06:08:49;;;;;;;16.63;6.07;;;;;;;-0.45;82.79;102258.53;4990246;28;20055;-86
2022/01/14 06:11:15;;;;;;;11.82;4.82;;;;;;;-0.57;83.23;102261.56;4951420;28;20051;-84
2022/01/14 06:13:41;;;;;;;9.80;4.40;;;;;;;-0.66;84.31;102262.69;4956511;28;20062;-84
2022/01/14 06:16:06;;;;;;;12.48;5.10;;;;;;;-0.68;85.06;102267.09;4951993;29;20043;-84
2022/01/14 06:21:19;;;;;;;9.57;4.47;;;;;;;-0.39;84.32;102260.09;4893475;26;20038;-84
2022/01/14 06:24:20;;;;;;;14.27;5.70;;;;;;;-0.39;83.91;102260.09;4991127;23;20114;-85
2022/01/14 06:27:32;;;;;;;17.38;6.03;;;;;;;-0.61;85.09;102250.38;4995689;28;20037;-86
2022/01/14 06:38:40;;;;;;;12.43;4.50;;;;;;;-0.60;86.56;102253.84;5136841;23;20038;-82
2022/01/14 06:54:35;;;;;;;18.13;6.05;;;;;;;0.42;84.22;102222.53;4949700;23;20050;-82
2022/01/14 06:57:00;;;;;;;22.17;7.35;;;;;;;0.66;84.20;102224.22;4977590;28;20031;-81
2022/01/14 06:59:26;;;;;;;29.45;7.68;;;;;;;0.83;82.91;102221.81;4976270;28;20050;-83
2022/01/14 07:01:53;;;;;;;22.02;8.10;;;;;;;0.99;80.44;102222.91;4976672;28;20041;-82
2022/01/14 07:04:19;;;;;;;23.33;6.82;;;;;;;1.02;79.11;102219.38;4975408;28;20408;-84
2022/01/14 07:06:45;;;;;;;20.27;7.45;;;;;;;1.49;78.69;102231.34;4976435;28;20031;-84
2022/01/14 07:09:10;;;;;;;25.10;7.90;;;;;;;1.96;75.28;102229.38;4976163;28;20035;-82
2022/01/14 07:11:37;;;;;;;16.85;7.05;;;;;;;2.67;73.93;102233.22;4972285;28;20448;-79
2022/01/14 07:14:04;;;;;;;30.23;7.15;;;;;;;2.65;69.65;102228.97;4975248;28;20030;-82
2022/01/14 07:16:30;;;;;;;28.08;7.68;;;;;;;2.75;70.18;102231.06;4974988;28;20039;-83
2022/01/14 07:18:56;;;;;;;26.38;7.70;;;;;;;2.34;69.14;102230.34;4965056;28;20035;-82
2022/01/14 07:21:21;;;;;;;25.40;9.40;;;;;;;2.89;67.03;102223.44;4974013;28;20035;-81
2022/01/14 07:23:47;;;;;;;34.15;9.43;;;;;;;3.57;64.44;102243.75;4974153;28;20027;-79
2022/01/14 07:26:12;;;;;;;34.97;8.23;;;;;;;4.38;62.72;102248.31;4983377;28;20078;-83
2022/01/14 07:28:38;;;;;;;46.35;9.77;;;;;;;4.14;61.90;102239.94;4996951;28;20043;-82
2022/01/14 07:31:04;;;;;;;39.85;8.13;;;;;;;4.54;61.12;102233.44;4983654;28;20046;-87
2022/01/14 07:33:30;;;;;;;23.85;6.68;;;;;;;4.91;60.03;102231.47;4983012;28;20034;-82
2022/01/14 07:35:56;;;;;;;28.92;5.93;;;;;;;5.29;60.20;102232.84;4982700;28;20070;-80
2022/01/14 07:38:22;;;;;;;31.83;6.18;;;;;;;5.53;57.29;102241.97;4981363;28;20031;-86
2022/01/14 07:40:47;;;;;;;23.02;5.80;;;;;;;6.32;56.58;102234.66;4975243;28;20125;-81
2022/01/14 07:43:13;;;;;;;16.50;5.38;;;;;;;7.14;54.21;102237.41;4976276;28;20105;-84
2022/01/14 07:45:39;;;;;;;32.78;6.38;;;;;;;7.03;53.09;102229.31;4975116;28;20534;-82
2022/01/14 07:48:04;;;;;;;27.77;6.13;;;;;;;6.63;53.38;102229.19;4974209;28;20034;-83
2022/01/14 07:50:30;;;;;;;33.38;5.72;;;;;;;6.86;53.65;102221.66;4972966;28;20046;-79
2022/01/14 07:52:55;;;;;;;28.33;7.15;;;;;;;6.37;54.86;102221.19;4977600;28;20081;-81
2022/01/14 07:55:21;;;;;;;23.42;6.10;;;;;;;6.60;53.53;102226.75;4973377;28;20042;-81
2022/01/14 07:57:47;;;;;;;103.47;17.60;;;;;;;7.19;54.69;102227.44;4973349;28;20065;-82
2022/01/14 08:00:13;;;;;;;31.35;6.80;;;;;;;7.88;50.25;102229.00;4960714;28;20517;-82
2022/01/14 08:02:40;;;;;;;24.40;6.63;;;;;;;7.32;49.74;102223.06;4954636;28;20051;-82
2022/01/14 08:05:07;;;;;;;24.17;6.65;;;;;;;6.64;52.80;102223.00;4954335;28;20035;-81
2022/01/14 08:07:34;;;;;;;57.45;11.45;;;;;;;7.45;52.73;102221.31;4953913;28;20035;-80
2022/01/14 08:10:00;;;;;;;88.57;13.13;;;;;;;6.83;54.89;102216.59;4964594;28;20158;-81
2022/01/14 08:12:26;;;;;;;45.55;9.30;;;;;;;6.42;53.21;102216.50;4959798;28;20097;-80
2022/01/14 08:14:51;;;;;;;36.00;9.55;;;;;;;6.26;55.15;102216.63;4967132;28;20413;-82
2022/01/14 08:17:19;;;;;;;40.03;8.40;;;;;;;5.16;56.93;102221.31;4966636;28;20388;-80
2022/01/14 08:19:46;;;;;;;62.95;19.13;;;;;;;5.02;58.93;102213.34;4970409;28;20039;-83
2022/01/14 08:22:11;;;;;;;93.50;18.95;;;;;;;5.10;59.28;102211.16;4973613;28;20042;-82
2022/01/14 08:24:37;;;;;;;76.50;18.27;;;;;;;5.05;59.55;102211.41;4971575;28;20122;-84
2022/01/14 08:27:05;;;;;;;50.40;14.95;;;;;;;5.06;59.65;102204.38;4971763;28;20030;-83
2022/01/14 08:29:32;;;;;;;61.17;12.18;;;;;;;5.10;58.70;102200.63;4969546;28;20035;-83
2022/01/14 08:31:58;;;;;;;76.82;14.48;;;;;;;5.21;58.31;102199.09;4957780;28;20035;-85
2022/01/14 08:34:24;;;;;;;71.30;12.57;;;;;;;5.02;57.65;102192.31;4962672;28;20500;-80
2022/01/14 08:36:52;;;;;;;48.90;11.57;;;;;;;5.12;58.17;102193.50;4956003;28;20481;-81
2022/01/14 08:39:18;;;;;;;60.20;13.68;;;;;;;5.04;58.95;102190.44;4960194;28;20028;-80
2022/01/14 08:41:47;;;;;;;83.15;14.40;;;;;;;5.02;58.87;102198.44;4959777;28;20122;-81
2022/01/14 08:44:14;;;;;;;169.98;20.88;;;;;;;4.81;60.96;102193.50;4963236;28;20034;-81
2022/01/14 08:46:43;;;;;;;207.48;20.45;;;;;;;4.67;61.86;102179.34;4968861;28;20042;-84
2022/01/14 08:49:46;;;;;;;38.30;9.18;;;;;;;4.47;58.34;102174.34;4981679;28;20095;-81
2022/01/14 08:52:12;;;;;;;;;;;;;;;4.63;59.78;102174.38;4992693;28;20050;-81
2022/01/14 08:54:39;;;;;;;71.68;10.88;;;;;;;5.23;58.51;102185.88;4957179;28;19926;-81
2022/01/14 08:57:05;;;;;;;49.17;9.15;;;;;;;5.01;57.38;102186.22;4971405;28;20139;-83
2022/01/14 08:59:46;;;;;;;103.63;11.70;;;;;;;5.03;59.69;102188.78;4987325;28;20039;-84
2022/01/14 09:02:14;;;;;;;22.67;6.80;;;;;;;5.26;57.61;102180.44;4988577;28;20042;-83
2022/01/14 09:04:41;;;;;;;21.48;4.85;;;;;;;5.10;54.85;102177.00;4997734;28;20076;-81
2022/01/14 09:07:07;;;;;;;20.70;4.72;;;;;;;4.95;55.31;102175.19;4995620;28;20035;-82
2022/01/14 09:09:32;;;;;;;15.65;4.82;;;;;;;4.94;55.88;102170.91;4989424;28;20045;-83
2022/01/14 09:12:00;;;;;;;30.08;4.75;;;;;;;4.81;56.91;102167.22;4978491;28;20091;-84
2022/01/14 09:14:28;;;;;;;14.98;5.18;;;;;;;4.72;56.44;102165.13;4978012;28;20090;-84
2022/01/14 09:16:56;;;;;;;17.90;4.85;;;;;;;4.68;56.16;102167.91;4993246;28;20035;-84
2022/01/14 09:19:22;;;;;;;14.85;5.72;;;;;;;4.66;56.27;102169.78;4990413;28;20070;-83
2022/01/14 09:21:48;;;;;;;22.95;5.78;;;;;;;4.73;55.99;102172.94;4982900;28;20011;-83
2022/01/14 09:24:19;;;;;;;20.35;5.72;;;;;;;4.92;56.46;102163.09;4986512;28;20062;-84
2022/01/14 09:26:45;;;;;;;16.73;4.77;;;;;;;4.77;56.64;102165.72;4977574;28;20031;-82
2022/01/14 09:29:11;;;;;;;14.07;5.35;;;;;;;4.80;57.84;102163.78;4971495;28;20278;-84
2022/01/14 09:31:37;;;;;;;15.65;4.55;;;;;;;4.74;58.52;102168.53;4985820;28;20880;-81
2022/01/14 09:34:03;;;;;;;16.85;4.70;;;;;;;5.04;57.68;102174.69;4980329;28;20055;-82
2022/01/14 09:36:31;;;;;;;9.68;4.20;;;;;;;5.10;57.40;102177.81;4979433;28;20400;-84
2022/01/14 09:38:58;;;;;;;14.60;4.03;;;;;;;4.99;57.36;102168.84;4965505;28;20457;-81
2022/01/14 09:41:24;;;;;;;20.13;4.85;;;;;;;5.03;58.02;102168.59;4965234;28;20038;-82
2022/01/14 09:43:50;;;;;;;22.20;4.82;;;;;;;5.04;58.61;102166.78;4977954;28;20027;-84
2022/01/14 09:46:15;;;;;;;19.38;4.30;;;;;;;4.93;59.12;102163.94;4970251;28;20035;-81
2022/01/14 09:48:41;;;;;;;68.15;9.00;;;;;;;4.89;61.02;102167.66;4971037;28;20116;-82
2022/01/14 09:51:08;;;;;;;14.13;4.93;;;;;;;4.89;60.95;102159.78;4973012;28;20050;-81
2022/01/14 09:53:35;;;;;;;26.98;5.47;;;;;;;5.08;61.34;102163.06;4981007;28;20043;-80
2022/01/14 09:56:02;;;;;;;19.20;5.40;;;;;;;5.12;60.10;102160.19;4970603;28;20074;-85
2022/01/14 09:58:49;;;;;;;24.13;5.38;;;;;;;5.28;59.79;102162.78;4971471;28;20043;-83
2022/01/14 10:01:28;;;;;;;11.27;4.50;;;;;;;5.15;58.66;102161.78;4971722;29;20039;-87
2022/01/14 10:04:02;;;;;;;22.45;4.85;;;;;;;5.22;58.76;102155.25;5018388;23;20110;-84
2022/01/14 10:06:42;;;;;;;18.92;4.55;;;;;;;5.31;58.56;102149.47;4997363;28;20049;-88
2022/01/14 10:09:17;;;;;;;19.67;5.47;;;;;;;5.48;59.07;102138.81;4992396;28;20027;-86
2022/01/14 10:11:57;;;;;;;22.85;5.35;;;;;;;5.47;58.21;102125.78;4994299;28;20038;-86
2022/01/14 10:14:23;;;;;;;19.00;4.85;;;;;;;5.50;58.41;102120.34;4996022;28;20042;-85
2022/01/14 10:16:56;;;;;;;20.85;5.40;;;;;;;5.64;58.70;102118.56;4994488;28;20015;-86
2022/01/14 10:19:43;;;;;;;15.70;4.53;;;;;;;5.92;58.56;102116.94;4986023;28;20039;-89
2022/01/14 10:22:23;;;;;;;17.55;5.07;;;;;;;5.88;58.46;102104.91;4985175;28;20039;-87
2022/01/14 10:25:09;;;;;;;16.58;4.57;;;;;;;6.00;58.48;102101.53;4981657;28;20062;-84
2022/01/14 10:27:46;;;;;;;10.93;4.32;;;;;;;6.09;58.54;102096.56;4996088;28;20042;-88
2022/01/14 10:30:30;;;;;;;29.80;5.35;;;;;;;6.32;58.19;102095.13;5003220;28;20034;-87
2022/01/14 10:32:57;;;;;;;23.05;5.82;;;;;;;6.25;58.39;102075.38;5011235;28;20037;-88
2022/01/14 10:35:24;;;;;;;26.40;6.15;;;;;;;6.54;58.18;102084.91;5002696;28;20034;-85
2022/01/14 10:37:50;;;;;;;22.33;5.90;;;;;;;6.55;58.41;102076.06;5017959;28;20026;-86
2022/01/14 10:40:23;;;;;;;17.33;5.07;;;;;;;6.66;58.01;102083.28;5008878;28;20387;-89
2022/01/14 10:43:06;;;;;;;16.65;5.50;;;;;;;6.73;57.05;102074.88;4983402;28;20035;-85
2022/01/14 10:45:33;;;;;;;19.35;5.43;;;;;;;6.87;57.95;102070.50;4972216;28;20054;-84
2022/01/14 10:48:16;;;;;;;39.35;6.78;;;;;;;6.89;59.54;102060.72;4983896;28;20062;-87
2022/01/14 10:50:43;;;;;;;33.15;6.75;;;;;;;6.89;60.33;102060.72;4989461;28;20050;-84
2022/01/14 10:53:21;;;;;;;26.88;6.80;;;;;;;7.02;59.82;102058.94;5006454;28;20037;-89
2022/01/14 10:55:52;;;;;;;30.73;6.82;;;;;;;7.15;59.89;102054.56;5004923;28;20038;-87
2022/01/14 10:58:31;;;;;;;;;;;;;;;7.23;59.55;102047.81;4972470;28;20043;-88
2022/01/14 11:01:12;;;;;;;13.85;6.10;;;;;;;7.22;59.32;102030.28;4992947;28;19988;-84
2022/01/14 11:03:39;;;;;;;25.58;7.30;;;;;;;7.23;59.23;102034.63;5010630;28;20472;-88
2022/01/14 11:06:28;;;;;;;21.58;5.38;;;;;;;7.08;57.66;102026.91;5004889;28;20038;-86
2022/01/14 11:09:03;;;;;;;32.20;7.40;;;;;;;7.08;57.28;102026.91;5001533;28;20113;-83
2022/01/14 11:11:31;;;;;;;16.42;6.43;;;;;;;6.95;57.32;102026.88;5002040;28;20415;-86
2022/01/14 11:13:57;;;;;;;31.25;9.38;;;;;;;7.29;57.75;102014.91;4998583;28;20038;-85
2022/01/14 11:16:24;;;;;;;20.75;6.15;;;;;;;7.27;56.24;102012.38;4999794;28;20486;-87
2022/01/14 11:18:50;;;;;;;20.35;7.13;;;;;;;7.36;55.80;102005.63;5001768;28;20039;-87
2022/01/14 11:24:04;;;;;;;14.10;6.40;;;;;;;7.58;55.87;101997.06;4988297;28;20058;-85
2022/01/14 11:26:34;;;;;;;20.75;7.30;;;;;;;7.65;55.61;101991.28;5007083;28;20038;-83
2022/01/14 11:29:12;;;;;;;13.80;6.43;;;;;;;7.61;54.94;101981.03;4987241;28;20043;-83
2022/01/14 11:31:39;;;;;;;24.60;7.03;;;;;;;7.71;53.25;101984.72;4979368;28;20042;-84
2022/01/14 11:34:08;;;;;;;14.65;6.88;;;;;;;7.75;52.93;101971.22;4980646;28;20497;-85
2022/01/14 11:36:58;;;;;;;14.10;6.28;;;;;;;7.87;52.05;101968.63;4994527;28;20031;-85
2022/01/14 11:39:30;;;;;;;12.20;6.05;;;;;;;7.97;52.91;101961.75;4983935;28;20039;-82
2022/01/14 11:41:58;;;;;;;13.48;6.68;;;;;;;8.07;53.47;101954.84;4976065;28;20034;-83
2022/01/14 11:44:42;;;;;;;15.38;6.40;;;;;;;8.23;53.89;101947.50;4976074;28;20027;-84
2022/01/14 11:47:36;;;;;;;14.25;6.95;;;;;;;8.12;54.42;101942.16;4976490;28;20511;-84
2022/01/14 11:50:05;;;;;;;14.80;6.53;;;;;;;8.28;53.81;101934.84;4976216;28;20050;-86
2022/01/14 11:52:42;;;;;;;15.38;6.65;;;;;;;8.31;52.47;101937.25;4978444;28;20038;-87
2022/01/14 11:55:23;;;;;;;19.30;7.45;;;;;;;8.40;53.64;101926.00;4981679;28;20485;-85
2022/01/14 11:57:57;;;;;;;17.55;7.30;;;;;;;8.38;54.72;101917.34;4972775;28;20034;-85
2022/01/14 12:00:26;;;;;;;18.30;7.82;;;;;;;8.38;56.00;101916.50;4985488;28;20022;-85
2022/01/14 12:02:56;;;;;;;23.60;9.27;;;;;;;8.39;55.55;101915.53;4978847;28;20039;-84
2022/01/14 12:05:23;;;;;;;15.30;7.97;;;;;;;8.42;55.56;101902.94;4975585;28;20129;-85
2022/01/14 12:08:04;;;;;;;22.15;9.60;;;;;;;8.44;56.31;101894.91;4975004;28;20035;-87
2022/01/14 12:10:32;;;;;;;16.23;9.50;;;;;;;8.37;57.37;101886.59;4975429;28;20046;-86
2022/01/14 12:13:28;;;;;;;22.20;8.93;;;;;;;8.44;57.54;101889.63;4978629;28;20037;-87
2022/01/14 12:15:59;;;;;;;20.05;9.38;;;;;;;8.51;57.00;101883.78;4977371;28;20498;-86
2022/01/14 12:18:59;;;;;;;19.70;9.38;;;;;;;8.29;57.20;101887.16;4974902;28;20035;-85
2022/01/14 12:21:43;;;;;;;24.65;11.65;;;;;;;8.47;56.98;101874.38;4974823;28;20400;-86
2022/01/14 12:24:27;;;;;;;20.85;10.60;;;;;;;8.34;56.07;101865.69;4975645;28;20034;-85
2022/01/14 12:26:52;;;;;;;20.83;10.38;;;;;;;8.46;56.75;101867.41;4977305;28;20045;-88
2022/01/14 12:29:20;;;;;;;20.88;9.50;;;;;;;8.46;56.59;101862.13;4976219;28;20031;-86
2022/01/14 12:32:05;;;;;;;18.63;9.48;;;;;;;8.54;56.64;101856.28;4984165;28;20039;-89
2022/01/14 12:34:32;;;;;;;24.90;10.77;;;;;;;8.68;57.07;101864.00;4976441;28;20393;-86
2022/01/14 12:36:58;;;;;;;25.20;11.05;;;;;;;8.70;56.70;101857.63;4977866;28;20050;-87
2022/01/14 12:39:24;;;;;;;31.80;12.20;;;;;;;8.61;57.20;101850.41;4988922;28;20042;-84
2022/01/14 12:41:57;;;;;;;30.60;12.30;;;;;;;8.72;57.93;101855.69;4996606;28;20118;-88
2022/01/14 12:44:24;;;;;;;26.25;11.23;;;;;;;8.79;57.44;101849.00;4994744;28;20061;-87
2022/01/14 12:47:07;;;;;;;26.95;13.68;;;;;;;8.90;57.54;101839.38;4994716;28;20085;-87
2022/01/14 12:49:40;;;;;;;24.92;11.52;;;;;;;8.91;56.51;101828.72;4994416;28;20065;-89
2022/01/14 12:52:22;;;;;;;27.02;11.32;;;;;;;8.82;55.69;101837.34;4996948;28;20039;-86
2022/01/14 12:54:48;;;;;;;21.15;11.52;;;;;;;8.76;56.10;101827.22;5000873;28;20034;-90
2022/01/14 12:57:18;;;;;;;33.33;12.30;;;;;;;8.70;57.42;101823.28;4999516;28;20365;-88
2022/01/14 12:59:47;;;;;;;26.83;12.15;;;;;;;8.66;57.78;101821.81;5015409;28;20026;-85
2022/01/14 13:02:19;;;;;;;26.92;12.68;;;;;;;8.76;57.92;101822.78;4996440;28;20043;-90
2022/01/14 13:04:58;;;;;;;29.95;12.93;;;;;;;8.74;57.93;101814.16;4975120;28;20030;-83
2022/01/14 13:07:25;;;;;;;23.30;11.88;;;;;;;8.79;56.87;101805.84;4977537;28;20045;-83
2022/01/14 13:09:51;;;;;;;23.05;12.15;;;;;;;8.98;56.53;101815.84;4974747;28;20106;-83
2022/01/14 13:12:20;;;;;;;26.98;13.15;;;;;;;8.94;56.04;101799.38;4974234;28;20031;-84
2022/01/14 13:14:51;;;;;;;24.10;12.30;;;;;;;8.80;54.85;101803.09;4976082;28;20511;-85
2022/01/14 13:17:26;;;;;;;25.20;12.87;;;;;;;8.88;55.31;101801.66;4978901;28;20062;-84
2022/01/14 13:20:05;;;;;;;25.20;13.15;;;;;;;8.76;55.58;101796.38;4977703;28;20051;-84
2022/01/14 13:22:32;;;;;;;26.90;13.63;;;;;;;8.76;56.28;101791.06;4985605;28;20038;-81
2022/01/14 13:25:01;;;;;;;25.75;13.98;;;;;;;8.81;56.74;101793.38;4985702;28;20034;-86
2022/01/14 13:27:28;;;;;;;32.05;13.98;;;;;;;8.81;56.94;101783.66;4978688;28;20051;-86
2022/01/14 13:30:16;;;;;;;28.13;14.52;;;;;;;8.80;56.97;101784.59;4976925;28;20036;-85
2022/01/14 13:32:43;;;;;;;32.45;14.98;;;;;;;8.75;57.73;101772.69;4983599;28;20121;-82
2022/01/14 13:35:11;;;;;;;28.35;14.50;;;;;;;8.74;58.07;101777.16;4985785;28;20074;-82
2022/01/14 13:37:38;;;;;;;28.63;14.13;;;;;;;8.84;57.97;101782.56;4978348;28;20496;-81
2022/01/14 13:40:06;;;;;;;26.48;13.93;;;;;;;8.73;56.15;101780.75;4993144;28;20041;-85
2022/01/14 13:42:32;;;;;;;30.73;14.15;;;;;;;8.71;55.28;101766.81;4998502;28;20126;-82
2022/01/14 13:45:25;;;;;;;28.60;14.73;;;;;;;8.73;54.31;101770.16;4994919;28;20038;-82
2022/01/14 13:48:09;;;;;;;16.90;8.88;;;;;;;8.84;53.77;101761.41;4997317;28;20031;-81
2022/01/14 13:50:41;;;;;;;32.30;13.40;;;;;;;8.83;53.27;101763.22;4996741;28;20184;-85
2022/01/14 13:53:08;;;;;;;30.50;12.82;;;;;;;8.78;54.14;101752.13;4997325;28;20066;-86
2022/01/14 13:55:43;;;;;;;31.73;14.45;;;;;;;8.81;54.05;101749.28;4999395;28;20037;-83
2022/01/14 13:58:16;;;;;;;26.98;14.20;;;;;;;8.85;53.83;101751.69;4978310;28;20432;-87
2022/01/14 14:00:44;;;;;;;31.15;15.77;;;;;;;8.90;53.92;101750.34;4979406;28;20035;-85
2022/01/14 14:03:42;;;;;;;31.27;12.65;;;;;;;8.83;54.28;101739.41;4977314;28;20057;-87
2022/01/14 14:06:31;;;;;;;26.77;13.93;;;;;;;8.99;54.21;101731.09;4982111;28;20058;-88
2022/01/14 14:17:04;;;;;;;27.30;14.80;;;;;;;9.04;57.64;101715.72;4979759;28;20054;-84
2022/01/14 14:19:45;;;;;;;27.35;13.75;;;;;;;9.04;57.33;101714.88;4979241;28;20125;-83
2022/01/14 14:22:24;;;;;;;29.05;13.80;;;;;;;9.04;57.43;101709.59;4984550;28;20035;-83
2022/01/14 14:25:13;;;;;;;28.35;14.23;;;;;;;8.98;57.98;101713.53;4993636;28;20038;-83
2022/01/14 14:27:52;;;;;;;29.10;13.88;;;;;;;9.09;58.50;101707.41;4975159;28;20035;-81
2022/01/14 14:30:18;;;;;;;34.10;13.95;;;;;;;9.07;57.61;101698.75;4976847;28;20042;-82
2022/01/14 14:32:45;;;;;;;36.78;13.82;;;;;;;9.05;56.45;101693.59;4975825;28;20030;-83
2022/01/14 14:35:16;;;;;;;27.90;13.85;;;;;;;8.88;55.40;101698.56;4979966;28;20081;-83
2022/01/14 14:37:47;;;;;;;23.05;13.05;;;;;;;8.78;54.16;101690.53;4983306;28;20034;-85
2022/01/14 14:40:18;;;;;;;23.00;11.77;;;;;;;8.75;53.59;101688.94;4980816;28;20034;-84
2022/01/14 14:42:44;;;;;;;21.55;11.50;;;;;;;8.78;53.12;101693.19;4979592;28;20421;-85
2022/01/14 14:45:11;;;;;;;28.90;13.18;;;;;;;8.69;52.59;101689.44;4991274;28;20423;-83
2022/01/14 14:47:37;;;;;;;26.63;12.75;;;;;;;8.65;53.00;101695.09;4992215;28;20373;-84
2022/01/14 14:50:04;;;;;;;27.83;12.93;;;;;;;8.76;53.43;101693.28;4978264;28;20134;-86
2022/01/14 14:52:29;;;;;;;28.75;12.75;;;;;;;8.87;53.23;101691.59;4986383;28;20050;-82
2022/01/14 14:54:55;;;;;;;30.27;13.15;;;;;;;8.85;54.20;101682.94;4991495;28;20030;-84
2022/01/14 14:57:21;;;;;;;22.55;12.13;;;;;;;8.97;54.37;101681.97;4984463;28;20054;-82
2022/01/14 14:59:46;;;;;;;29.73;14.52;;;;;;;8.80;55.97;101681.50;4984567;28;20106;-85
2022/01/14 15:02:14;;;;;;;30.98;13.25;;;;;;;8.87;56.11;101673.09;4981890;28;20113;-82
2022/01/14 15:04:41;;;;;;;26.88;13.35;;;;;;;8.91;56.33;101669.25;4995266;28;20038;-83
2022/01/14 15:07:08;;;;;;;29.58;13.25;;;;;;;8.98;56.42;101668.59;4986807;28;20042;-83
2022/01/14 15:09:35;;;;;;;29.92;13.07;;;;;;;8.86;55.99;101664.31;4989268;28;20096;-83
2022/01/14 15:12:03;;;;;;;31.73;14.05;;;;;;;8.69;55.81;101665.66;4988774;28;20022;-83
2022/01/14 15:14:33;;;;;;;27.08;13.88;;;;;;;8.62;55.98;101658.31;4980629;28;20035;-82
2022/01/14 15:19:37;;;;;;;33.88;14.18;;;;;;;8.66;57.09;101657.97;4976451;28;20046;-85
2022/01/14 15:22:04;;;;;;;26.45;15.23;;;;;;;8.70;56.99;101656.78;4976595;28;20039;-85
2022/01/14 15:24:30;;;;;;;30.90;14.68;;;;;;;8.64;57.70;101659.91;4975254;28;20031;-85
2022/01/14 15:26:59;;;;;;;28.23;13.75;;;;;;;8.66;58.97;101652.69;4980459;28;20037;-83
2022/01/14 15:29:24;;;;;;;31.10;14.05;;;;;;;8.64;59.31;101644.06;4995083;28;20540;-83
2022/01/14 15:31:50;;;;;;;28.17;14.18;;;;;;;8.76;59.25;101648.34;4994305;28;20038;-85
2022/01/14 15:34:16;;;;;;;34.90;15.02;;;;;;;8.81;59.57;101646.19;4982275;28;20472;-85
2022/01/14 15:36:42;;;;;;;33.22;14.77;;;;;;;8.87;59.85;101650.13;4984295;28;20388;-82
2022/01/14 15:39:08;;;;;;;40.13;15.43;;;;;;;8.90;60.33;101633.19;4988540;28;20476;-84
2022/01/14 15:41:34;;;;;;;38.70;14.63;;;;;;;8.90;61.01;101638.47;4994584;28;20034;-85
2022/01/14 15:44:03;;;;;;;39.40;16.88;;;;;;;8.94;61.35;101639.91;4998295;28;20041;-85
2022/01/14 15:46:29;;;;;;;42.67;16.58;;;;;;;8.93;61.78;101643.50;5013599;28;20039;-83
2022/01/14 15:48:56;;;;;;;38.95;15.95;;;;;;;8.92;62.37;101632.09;5000027;28;20042;-84
2022/01/14 15:51:25;;;;;;;42.08;16.17;;;;;;;8.90;63.95;101633.19;4994399;28;20117;-87
2022/01/14 15:53:55;;;;;;;47.42;17.13;;;;;;;8.90;64.30;101638.47;4987962;28;20213;-85
2022/01/14 15:56:21;;;;;;;38.72;15.27;;;;;;;8.87;63.58;101629.00;4980641;28;20378;-86
2022/01/14 15:58:47;;;;;;;41.30;17.65;;;;;;;8.85;63.93;101624.78;4975188;28;20034;-84
2022/01/14 16:01:14;;;;;;;44.85;17.35;;;;;;;8.86;65.03;101627.28;4975566;28;20023;-86
2022/01/14 16:03:42;;;;;;;44.92;16.83;;;;;;;8.83;65.52;101623.09;4974009;28;20418;-87
2022/01/14 16:06:08;;;;;;;44.70;17.30;;;;;;;8.80;65.80;101620.72;4975625;28;20054;-85